Flinterborg — PHPH — position and weather

sailwx.info

Track history (hours):
 
Tides and Currents Weather Stations Pressure Air Temp Water Temp Dewpoint Dewpoint Depression Visibility Wind Speed Wind Dir Waves Ship Positions

Flinterborg

Last reported at 2018-Jul-02 12:00 UTC. Time now 2018-Jul-22 03:04 UTC.
Position N 36°40' E 014°36'.
Warning: this ship's position is 19 days out of date.

Length 111 m; draft 5.8 m.

Type: Ship. MMSI: 245433000.

Date/timePositionNaut miles runAvg speedWind from/ knotsBaromVisibWave heightAir tempDewpointWater temp
2018-Jul-02 12:00N 36°40' E 014°36'510.8
2018-Jul-02 11:30N 36°40' E 014°29'611.2
2018-Jul-02 11:00N 36°42' E 014°23'611.3
2018-Jul-02 10:28N 36°44' E 014°15'511.4
2018-Jul-02 10:00N 36°45' E 014°09'611.3
2018-Jul-02 09:30N 36°46' E 014°02'611.2
2018-Jul-02 09:00N 36°48' E 013°55'611.3
2018-Jul-02 08:27N 36°49' E 013°48'511.2
2018-Jul-02 07:59N 36°51' E 013°42'53210.7
2018-Jun-30 06:16N 38°06' E 002°38'610.9
2018-Jun-30 05:43N 38°06' E 002°31'211.0
2018-Jun-30 05:30N 38°06' E 002°28'610.8
2018-Jun-30 04:57N 38°06' E 002°20'510.7
2018-Jun-30 04:30N 38°07' E 002°14'710.7
2018-Jun-30 03:50N 38°07' E 002°05'410.7
2018-Jun-30 03:30N 38°08' E 002°01'510.7
2018-Jun-30 03:00N 38°09' E 001°54'107 2.3
2018-Jun-28 05:16N 37°59' W 000°22'6812.3
2018-Jun-27 23:42N 36°51' W 000°08'  
2018-Jun-24 16:32N 35°56' E 000°05'0 0.0
2018-Jun-24 16:29N 35°56' E 000°05'0 0.0
2018-Jun-24 15:59N 35°56' E 000°05'0 0.0
2018-Jun-22 20:19N 35°56' E 000°05'0 0.0
2018-Jun-22 19:52N 35°56' E 000°05'  
Track history (hours):
 
Tides and Currents Weather Stations Pressure Air Temp Water Temp Dewpoint Dewpoint Depression Visibility Wind Speed Wind Dir Waves Ship Positions

Flinterborg

Last reported at 2018-Jul-02 12:00 UTC. Time now 2018-Jul-22 03:04 UTC.
Position N 36°40' E 014°36'.
Warning: this ship's position is 19 days out of date.

Length 111 m; draft 5.8 m.

Type: Ship. MMSI: 245433000.

Date/timePositionNaut miles runAvg speedWind from/ knotsBaromVisibWave heightAir tempDewpointWater temp
2018-Jul-02 12:00N 36°40' E 014°36'510.8
2018-Jul-02 11:30N 36°40' E 014°29'611.2
2018-Jul-02 11:00N 36°42' E 014°23'611.3
2018-Jul-02 10:28N 36°44' E 014°15'511.4
2018-Jul-02 10:00N 36°45' E 014°09'611.3
2018-Jul-02 09:30N 36°46' E 014°02'611.2
2018-Jul-02 09:00N 36°48' E 013°55'611.3
2018-Jul-02 08:27N 36°49' E 013°48'511.2
2018-Jul-02 07:59N 36°51' E 013°42'53210.7
2018-Jun-30 06:16N 38°06' E 002°38'610.9
2018-Jun-30 05:43N 38°06' E 002°31'211.0
2018-Jun-30 05:30N 38°06' E 002°28'610.8
2018-Jun-30 04:57N 38°06' E 002°20'510.7
2018-Jun-30 04:30N 38°07' E 002°14'710.7
2018-Jun-30 03:50N 38°07' E 002°05'410.7
2018-Jun-30 03:30N 38°08' E 002°01'510.7
2018-Jun-30 03:00N 38°09' E 001°54'107 2.3
2018-Jun-28 05:16N 37°59' W 000°22'6812.3
2018-Jun-27 23:42N 36°51' W 000°08'  
2018-Jun-24 16:32N 35°56' E 000°05'0 0.0
2018-Jun-24 16:29N 35°56' E 000°05'0 0.0
2018-Jun-24 15:59N 35°56' E 000°05'0 0.0
2018-Jun-22 20:19N 35°56' E 000°05'0 0.0
2018-Jun-22 19:52N 35°56' E 000°05'  

Dump ship's entire track history